Time;durP1;ratioP1;P1;durP2;ratioP2;P2;SDS_P1;SDS_P2;PMS_P1;PMS_P2;Temp;Humidity;BMP_temperature;BMP_pressure;BME280_temperature;BME280_humidity;BME280_pressure;Samples;Min_cycle;Max_cycle;Signal;HPM_P1;HPM_P2
2021/06/02 08:21:07;;;;;;;9.43;3.35;;;20.50;55.80;;;;;;5205062;27;20744;-55
2021/06/02 08:23:40;;;;;;;10.65;3.28;;;20.50;56.10;;;;;;5166939;27;20053;-54
2021/06/02 08:26:12;;;;;;;17.38;3.78;;;20.60;56.60;;;;;;5165993;28;20052;-56
2021/06/02 08:28:45;;;;;;;10.05;3.65;;;20.70;56.10;;;;;;5163373;28;20785;-54
2021/06/02 08:31:17;;;;;;;12.48;3.25;;;20.80;55.90;;;;;;5178598;28;20055;-55
2021/06/02 08:33:50;;;;;;;14.68;3.78;;;20.90;55.60;;;;;;5169010;28;20056;-53
2021/06/02 08:36:22;;;;;;;8.45;3.08;;;21.00;55.10;;;;;;5167529;28;20076;-55
2021/06/02 08:38:55;;;;;;;5.97;3.28;;;21.10;54.70;;;;;;5170650;28;20052;-56
2021/06/02 08:41:27;;;;;;;10.15;3.60;;;21.30;54.30;;;;;;5173521;28;20047;-56
2021/06/02 08:44:00;;;;;;;8.57;3.50;;;21.40;53.90;;;;;;5169194;28;20155;-57
2021/06/02 08:46:35;;;;;;;6.50;3.20;;;21.50;53.50;;;;;;5172461;28;20060;-58
2021/06/02 08:49:16;;;;;;;10.48;3.55;;;21.60;53.10;;;;;;5163791;28;20520;-55
2021/06/02 08:51:49;;;;;;;5.88;3.50;;;21.70;52.70;;;;;;5165534;28;20053;-57
2021/06/02 08:54:22;;;;;;;12.53;3.40;;;21.80;52.40;;;;;;5168522;28;20512;-56
2021/06/02 08:56:55;;;;;;;15.38;3.63;;;21.90;52.30;;;;;;5180681;28;21358;-55
2021/06/02 08:59:28;;;;;;;6.80;3.72;;;22.00;51.90;;;;;;5182957;28;20559;-58
2021/06/02 09:02:02;;;;;;;7.28;3.33;;;22.10;51.50;;;;;;5178330;28;20321;-52
2021/06/02 09:04:35;;;;;;;7.70;3.13;;;22.20;51.50;;;;;;5175863;28;20053;-58
2021/06/02 09:07:08;;;;;;;10.63;3.35;;;22.30;51.40;;;;;;5177455;28;20449;-58
2021/06/02 09:09:41;;;;;;;8.52;3.72;;;22.40;51.40;;;;;;5178557;28;22293;-51
2021/06/02 09:12:15;;;;;;;11.33;3.53;;;22.50;51.30;;;;;;5175373;28;20063;-57
2021/06/02 09:14:59;;;;;;;12.45;3.45;;;22.50;51.30;;;;;;5163635;28;20512;-58
2021/06/02 09:17:46;;;;;;;7.45;3.10;;;22.50;51.60;;;;;;5178100;28;20036;-54
2021/06/02 09:20:38;;;;;;;11.27;3.55;;;22.50;50.60;;;;;;5187080;28;20558;-54
2021/06/02 09:23:35;;;;;;;6.22;3.65;;;22.50;49.70;;;;;;5184127;28;20453;-53
2021/06/02 09:26:15;;;;;;;12.23;4.60;;;22.50;49.10;;;;;;5158647;28;20535;-57
2021/06/02 09:29:02;;;;;;;5.65;3.70;;;22.60;49.40;;;;;;5143254;28;20041;-57
2021/06/02 09:31:37;;;;;;;7.10;4.07;;;22.60;48.80;;;;;;5156760;28;20050;-54
2021/06/02 09:34:15;;;;;;;7.80;3.35;;;22.60;49.00;;;;;;5145731;28;20648;-50
2021/06/02 09:36:51;;;;;;;9.13;3.75;;;22.60;48.20;;;;;;5145122;28;20064;-59
2021/06/02 09:39:24;;;;;;;10.43;3.95;;;22.60;48.40;;;;;;5142459;28;20046;-55
2021/06/02 09:41:59;;;;;;;9.53;4.00;;;22.70;48.40;;;;;;5148255;28;20046;-58
2021/06/02 09:44:32;;;;;;;8.50;4.13;;;22.70;48.60;;;;;;5139369;28;20053;-56
2021/06/02 09:47:09;;;;;;;11.90;4.03;;;22.80;49.00;;;;;;5140418;28;20054;-57
2021/06/02 09:49:50;;;;;;;6.18;3.85;;;22.80;49.00;;;;;;5142323;28;20636;-53
2021/06/02 09:52:45;;;;;;;9.88;4.00;;;22.80;48.10;;;;;;5146164;28;20057;-54
2021/06/02 09:55:20;;;;;;;5.35;3.90;;;22.80;48.10;;;;;;5149439;28;20046;-55
2021/06/02 09:58:12;;;;;;;5.70;3.50;;;22.80;48.10;;;;;;5147929;28;20064;-55
2021/06/02 10:00:59;;;;;;;6.80;3.93;;;22.80;48.00;;;;;;5143914;28;20435;-55
2021/06/02 10:03:41;;;;;;;5.38;3.80;;;22.90;47.40;;;;;;5137741;28;20057;-58
2021/06/02 10:06:15;;;;;;;5.00;3.50;;;22.90;46.70;;;;;;5143689;28;20053;-56
2021/06/02 10:08:55;;;;;;;6.68;3.72;;;22.90;46.80;;;;;;5135624;28;20053;-59
2021/06/02 10:11:31;;;;;;;7.22;3.90;;;22.90;46.40;;;;;;5139178;28;20377;-57
2021/06/02 10:14:11;;;;;;;9.88;3.80;;;22.90;46.70;;;;;;5136110;28;20038;-55
2021/06/02 10:16:45;;;;;;;7.05;4.15;;;22.90;46.90;;;;;;5127057;28;20548;-53
2021/06/02 10:19:42;;;;;;;6.30;3.75;;;23.00;47.10;;;;;;5142296;28;20046;-52
2021/06/02 10:22:33;;;;;;;7.68;4.03;;;23.00;46.90;;;;;;5130523;28;20426;-57
2021/06/02 10:25:08;;;;;;;11.57;4.68;;;23.00;47.20;;;;;;5120112;28;20589;-57
2021/06/02 10:27:40;;;;;;;9.52;4.10;;;23.00;47.60;;;;;;5137001;28;20580;-53
2021/06/02 10:30:13;;;;;;;12.35;4.28;;;23.00;47.70;;;;;;5133392;28;20046;-59
2021/06/02 10:32:46;;;;;;;14.32;3.90;;;23.00;47.80;;;;;;5128588;28;20061;-56
2021/06/02 10:35:19;;;;;;;28.08;5.55;;;23.10;47.90;;;;;;5133253;28;20637;-54
2021/06/02 10:37:54;;;;;;;9.13;4.07;;;23.10;48.00;;;;;;5118750;28;20054;-54
2021/06/02 10:40:29;;;;;;;15.50;4.20;;;23.10;48.10;;;;;;5118128;28;20049;-52
2021/06/02 10:43:07;;;;;;;14.18;4.28;;;23.10;48.10;;;;;;5124823;28;20064;-56
2021/06/02 10:45:57;;;;;;;11.60;3.92;;;23.10;48.10;;;;;;5128171;28;20046;-55
2021/06/02 10:48:44;;;;;;;10.73;4.43;;;23.20;48.00;;;;;;5147886;28;20057;-55
2021/06/02 10:51:33;;;;;;;8.68;3.95;;;23.20;48.00;;;;;;5131425;28;20399;-53
2021/06/02 10:54:10;;;;;;;7.80;3.75;;;23.20;48.10;;;;;;5134525;28;20049;-55
2021/06/02 10:57:03;;;;;;;10.10;3.90;;;23.20;48.00;;;;;;5120619;28;20057;-58
2021/06/02 10:59:38;;;;;;;10.65;4.68;;;23.20;47.90;;;;;;5131790;28;20053;-57
2021/06/02 11:02:27;;;;;;;15.02;3.72;;;23.20;48.00;;;;;;5123180;28;20519;-52
2021/06/02 11:04:59;;;;;;;8.20;4.68;;;23.20;48.20;;;;;;5128625;28;20431;-53
2021/06/02 11:07:33;;;;;;;8.30;3.93;;;23.30;48.20;;;;;;5138261;28;20049;-53
2021/06/02 11:10:07;;;;;;;7.25;3.50;;;23.30;48.20;;;;;;5124214;28;20582;-55
2021/06/02 11:12:48;;;;;;;8.23;3.53;;;23.30;48.30;;;;;;5128847;28;20056;-52
2021/06/02 11:15:36;;;;;;;6.30;3.70;;;23.30;48.40;;;;;;5141128;28;20053;-58
2021/06/02 11:18:09;;;;;;;12.48;3.53;;;23.40;48.50;;;;;;5144619;28;20041;-54
2021/06/02 11:20:58;;;;;;;10.82;3.80;;;23.40;48.60;;;;;;5136538;28;20048;-55
2021/06/02 11:23:33;;;;;;;10.52;3.60;;;23.40;48.50;;;;;;5145423;28;20049;-54
2021/06/02 11:26:23;;;;;;;14.02;4.10;;;23.40;48.70;;;;;;5128280;28;20416;-54
2021/06/02 11:28:55;;;;;;;9.45;3.70;;;23.40;48.70;;;;;;5129668;28;20044;-54
2021/06/02 11:31:30;;;;;;;9.38;3.97;;;23.40;48.70;;;;;;5140422;28;20050;-55
2021/06/02 11:34:29;;;;;;;8.88;3.40;;;23.40;48.90;;;;;;5131813;28;20052;-54
2021/06/02 11:37:03;;;;;;;7.55;3.70;;;23.40;48.80;;;;;;5131807;28;20057;-54
2021/06/02 11:39:38;;;;;;;8.55;3.67;;;23.50;48.90;;;;;;5125611;28;20045;-51
2021/06/02 11:42:26;;;;;;;13.63;4.07;;;23.50;49.00;;;;;;5135401;28;20057;-56
2021/06/02 11:45:00;;;;;;;12.13;4.18;;;23.50;49.00;;;;;;5136871;28;20445;-53
2021/06/02 11:47:34;;;;;;;9.45;4.03;;;23.50;49.00;;;;;;5137333;28;20050;-52
2021/06/02 11:50:13;;;;;;;8.05;3.90;;;23.50;49.10;;;;;;5137273;28;20304;-55
2021/06/02 11:52:54;;;;;;;6.40;3.65;;;23.50;49.20;;;;;;5133650;28;20049;-55
2021/06/02 11:55:29;;;;;;;9.68;4.28;;;23.50;49.10;;;;;;5137699;28;21036;-54
2021/06/02 11:58:03;;;;;;;6.95;3.38;;;23.50;49.10;;;;;;5130598;28;20053;-56
2021/06/02 12:00:36;;;;;;;8.60;3.33;;;23.60;49.20;;;;;;5134199;28;20591;-57
2021/06/02 12:03:11;;;;;;;9.48;3.53;;;23.60;49.30;;;;;;5116769;28;20526;-54
2021/06/02 12:05:44;;;;;;;7.68;3.50;;;23.50;49.20;;;;;;5111585;28;20076;-53
2021/06/02 12:08:17;;;;;;;9.95;3.25;;;23.60;49.30;;;;;;5125969;28;20068;-56
2021/06/02 12:10:57;;;;;;;7.40;3.97;;;23.50;49.20;;;;;;5118032;28;20917;-54
2021/06/02 12:13:36;;;;;;;9.60;3.75;;;23.50;49.20;;;;;;5125412;28;20046;-55
2021/06/02 12:16:11;;;;;;;11.02;3.28;;;23.50;49.00;;;;;;5136012;28;20385;-52
2021/06/02 12:18:47;;;;;;;15.85;4.05;;;23.50;48.90;;;;;;5146769;28;20079;-56
2021/06/02 12:21:28;;;;;;;9.80;3.95;;;23.50;48.80;;;;;;5127316;28;20597;-57
2021/06/02 12:24:03;;;;;;;7.13;3.38;;;23.60;48.70;;;;;;5133162;28;20518;-56
2021/06/02 12:26:43;;;;;;;7.95;3.70;;;23.50;48.40;;;;;;5121413;28;20806;-54
2021/06/02 12:29:17;;;;;;;8.13;3.20;;;23.60;48.30;;;;;;5127278;28;20509;-53
2021/06/02 12:31:54;;;;;;;10.80;3.88;;;23.60;48.20;;;;;;5118938;28;22367;-53
2021/06/02 12:34:32;;;;;;;7.43;3.20;;;23.60;48.20;;;;;;5125783;28;20061;-55
2021/06/02 12:37:08;;;;;;;10.25;4.30;;;23.60;48.30;;;;;;5122128;28;20615;-54
2021/06/02 12:39:43;;;;;;;10.85;3.65;;;23.60;48.50;;;;;;5128914;28;20049;-54
2021/06/02 12:42:15;;;;;;;8.43;3.33;;;23.60;48.50;;;;;;5120841;28;20308;-54
2021/06/02 12:44:48;;;;;;;9.82;3.75;;;23.60;48.60;;;;;;5120567;28;20060;-56
2021/06/02 12:47:21;;;;;;;16.73;4.70;;;23.70;48.60;;;;;;5119343;28;20045;-54
2021/06/02 12:49:56;;;;;;;10.27;3.50;;;23.70;48.70;;;;;;5114925;28;20045;-52
2021/06/02 12:52:53;;;;;;;11.25;3.03;;;23.70;48.70;;;;;;5131303;28;21834;-58
2021/06/02 12:55:27;;;;;;;12.60;3.33;;;23.70;48.70;;;;;;5129398;28;20513;-54
2021/06/02 12:58:14;;;;;;;8.90;3.40;;;23.80;48.90;;;;;;5142736;28;20058;-55
2021/06/02 13:00:49;;;;;;;8.07;3.03;;;23.70;49.10;;;;;;5128859;28;20789;-56
2021/06/02 13:03:23;;;;;;;7.78;3.40;;;23.80;48.90;;;;;;5131018;28;20069;-55
2021/06/02 13:05:56;;;;;;;9.65;3.22;;;23.80;49.00;;;;;;5131017;28;20081;-54
2021/06/02 13:08:41;;;;;;;8.60;3.53;;;23.80;49.00;;;;;;5151569;28;20414;-53
2021/06/02 13:11:26;;;;;;;9.05;3.30;;;23.80;49.10;;;;;;5135481;28;20525;-57
2021/06/02 13:14:02;;;;;;;11.07;3.20;;;23.70;49.10;;;;;;5136040;28;20168;-58
2021/06/02 13:16:34;;;;;;;8.95;3.15;;;23.80;49.20;;;;;;5139537;28;27452;-57
2021/06/02 13:19:08;;;;;;;7.10;4.05;;;23.80;49.20;;;;;;5131707;28;20432;-54
2021/06/02 13:21:49;;;;;;;8.20;3.10;;;23.80;49.30;;;;;;5138657;28;20064;-51
2021/06/02 13:24:23;;;;;;;8.55;3.10;;;23.80;49.30;;;;;;5135031;28;20057;-53
2021/06/02 13:26:58;;;;;;;7.60;3.25;;;23.80;49.30;;;;;;5124091;28;21079;-56
2021/06/02 13:29:30;;;;;;;10.95;3.45;;;23.80;49.30;;;;;;5140148;28;20612;-55
2021/06/02 13:32:14;;;;;;;8.10;2.92;;;23.80;49.40;;;;;;5130527;28;20061;-55
2021/06/02 13:34:47;;;;;;;9.93;3.03;;;23.80;49.20;;;;;;5121321;28;20681;-53
2021/06/02 13:37:21;;;;;;;11.07;3.37;;;23.80;49.20;;;;;;5112527;28;20453;-51
2021/06/02 13:40:03;;;;;;;6.43;3.35;;;23.80;49.20;;;;;;5105016;28;25846;-54
2021/06/02 13:42:36;;;;;;;4.95;3.38;;;23.80;49.00;;;;;;5100682;28;20061;-54
2021/06/02 13:45:09;;;;;;;10.77;3.58;;;23.80;49.00;;;;;;5113546;28;20066;-57
2021/06/02 13:47:42;;;;;;;5.22;3.28;;;23.80;48.90;;;;;;5102157;28;20037;-57
2021/06/02 13:50:16;;;;;;;6.82;3.63;;;23.80;48.80;;;;;;5104701;28;20056;-57
2021/06/02 13:53:12;;;;;;;10.93;3.30;;;23.80;48.80;;;;;;5112044;28;20041;-55
2021/06/02 13:55:55;;;;;;;6.50;3.30;;;23.80;48.60;;;;;;5103945;28;22677;-57
2021/06/02 13:58:27;;;;;;;4.68;2.92;;;23.80;48.50;;;;;;5106791;28;20068;-56
2021/06/02 14:01:00;;;;;;;7.83;3.13;;;23.80;48.50;;;;;;5106605;28;20056;-51
2021/06/02 14:03:32;;;;;;;5.70;3.15;;;23.80;48.40;;;;;;5099972;28;20053;-58
2021/06/02 14:06:05;;;;;;;6.03;3.13;;;23.80;48.30;;;;;;5097150;28;20049;-55
2021/06/02 14:08:38;;;;;;;7.40;3.10;;;23.80;48.30;;;;;;5105081;28;21274;-58
2021/06/02 14:11:22;;;;;;;12.43;3.25;;;23.80;48.30;;;;;;5099647;28;20648;-57
2021/06/02 14:13:55;;;;;;;8.55;3.35;;;23.80;48.20;;;;;;5108815;28;20046;-57
2021/06/02 14:16:28;;;;;;;13.35;3.60;;;23.80;48.10;;;;;;5104383;28;20061;-57
2021/06/02 14:19:01;;;;;;;5.63;2.97;;;23.80;48.10;;;;;;5100564;28;20050;-54
2021/06/02 14:21:34;;;;;;;7.47;3.42;;;23.80;48.10;;;;;;5106443;28;20045;-55
2021/06/02 14:24:10;;;;;;;6.72;2.90;;;23.80;48.20;;;;;;5110205;28;20056;-55
2021/06/02 14:26:44;;;;;;;6.13;3.15;;;23.80;48.10;;;;;;5131153;28;20678;-58
2021/06/02 14:29:17;;;;;;;7.78;3.17;;;23.80;48.10;;;;;;5133439;28;20049;-51
2021/06/02 14:31:50;;;;;;;7.00;3.17;;;23.80;48.20;;;;;;5126567;28;20046;-55
2021/06/02 14:34:23;;;;;;;4.95;3.08;;;23.80;48.20;;;;;;5132581;28;20054;-54
2021/06/02 14:36:56;;;;;;;5.50;2.63;;;23.70;48.10;;;;;;5150089;28;20523;-54
2021/06/02 14:39:29;;;;;;;3.58;2.92;;;23.70;48.10;;;;;;5136113;28;20050;-55
2021/06/02 14:42:01;;;;;;;5.10;2.80;;;23.80;48.20;;;;;;5136744;28;20050;-59
2021/06/02 14:44:34;;;;;;;7.97;2.87;;;23.70;48.20;;;;;;5124577;28;20056;-57
2021/06/02 14:47:06;;;;;;;3.70;3.28;;;23.70;48.20;;;;;;5138733;28;20809;-56
2021/06/02 14:49:39;;;;;;;9.87;3.60;;;23.70;48.20;;;;;;5109838;28;20052;-55
2021/06/02 14:52:11;;;;;;;5.75;3.13;;;23.70;48.10;;;;;;5118725;28;20651;-54
2021/06/02 14:54:44;;;;;;;7.75;2.63;;;23.70;48.10;;;;;;5124660;28;20061;-60
2021/06/02 14:57:16;;;;;;;10.57;3.50;;;23.70;48.20;;;;;;5195781;28;20047;-57
2021/06/02 14:59:49;;;;;;;6.00;3.08;;;23.70;48.10;;;;;;5210648;28;20052;-55
2021/06/02 15:02:25;;;;;;;3.85;3.00;;;23.70;48.10;;;;;;5201933;27;20613;-56
2021/06/02 15:04:58;;;;;;;5.28;3.17;;;23.70;48.00;;;;;;5179699;28;20134;-58
2021/06/02 15:07:30;;;;;;;5.05;3.22;;;23.70;47.90;;;;;;5194711;27;20055;-56
2021/06/02 15:10:05;;;;;;;7.03;3.40;;;23.70;47.90;;;;;;5196445;27;21898;-54
2021/06/02 15:12:38;;;;;;;8.10;3.40;;;23.70;47.90;;;;;;5209170;27;20062;-55
2021/06/02 15:15:12;;;;;;;8.40;3.20;;;23.70;48.00;;;;;;5207633;27;20079;-55
2021/06/02 15:17:45;;;;;;;7.00;2.83;;;23.70;47.90;;;;;;5204433;28;20048;-54
2021/06/02 15:20:20;;;;;;;5.32;3.00;;;23.80;48.00;;;;;;5216175;27;20039;-57
2021/06/02 15:22:52;;;;;;;4.43;2.80;;;23.80;48.00;;;;;;5211602;27;20039;-57
2021/06/02 15:25:26;;;;;;;5.38;2.80;;;23.80;48.10;;;;;;5219377;27;20051;-57
2021/06/02 15:28:02;;;;;;;6.18;3.38;;;23.80;48.20;;;;;;5222805;27;20059;-52
2021/06/02 15:30:36;;;;;;;10.73;3.20;;;23.80;48.40;;;;;;5215043;28;20592;-56
2021/06/02 15:33:10;;;;;;;4.07;2.90;;;23.80;48.50;;;;;;5209646;27;20074;-58
2021/06/02 15:35:43;;;;;;;6.85;3.00;;;23.80;48.40;;;;;;5206419;27;25383;-57
2021/06/02 15:38:16;;;;;;;3.60;2.88;;;23.80;48.60;;;;;;5213394;28;20044;-54
2021/06/02 15:40:55;;;;;;;20.30;3.23;;;23.80;48.70;;;;;;5206449;28;20040;-57
2021/06/02 15:43:30;;;;;;;4.88;2.72;;;23.80;48.70;;;;;;5220165;28;20048;-52
2021/06/02 15:46:03;;;;;;;6.93;2.97;;;23.80;48.70;;;;;;5209236;28;20051;-56
2021/06/02 15:48:35;;;;;;;8.25;3.25;;;23.70;48.70;;;;;;5226749;28;20431;-55
2021/06/02 15:51:08;;;;;;;6.32;2.80;;;23.70;48.60;;;;;;5221075;27;20052;-56
2021/06/02 15:53:48;;;;;;;4.80;2.92;;;23.70;48.60;;;;;;5209444;27;20419;-56
2021/06/02 15:56:21;;;;;;;3.45;2.65;;;23.70;48.50;;;;;;5220484;28;20047;-53
2021/06/02 15:58:56;;;;;;;5.65;2.58;;;23.70;48.50;;;;;;5210800;27;20405;-58
2021/06/02 16:01:30;;;;;;;5.63;2.53;;;23.70;48.40;;;;;;5216537;27;20048;-53
2021/06/02 16:04:03;;;;;;;6.00;3.20;;;23.70;48.20;;;;;;5184029;27;20449;-54
2021/06/02 16:06:36;;;;;;;9.30;2.95;;;23.70;48.20;;;;;;5199802;28;20066;-59
2021/06/02 16:09:08;;;;;;;4.57;2.80;;;23.70;48.20;;;;;;5193543;28;20604;-55
2021/06/02 16:11:41;;;;;;;6.97;3.22;;;23.70;48.20;;;;;;5193615;27;20048;-54
2021/06/02 16:14:13;;;;;;;7.40;2.85;;;23.70;48.20;;;;;;5213309;28;20515;-56
2021/06/02 16:16:47;;;;;;;11.20;2.77;;;23.70;48.20;;;;;;5205546;28;20052;-55
2021/06/02 16:19:20;;;;;;;5.30;2.80;;;23.70;48.80;;;;;;5206144;28;20047;-56
2021/06/02 16:21:53;;;;;;;6.70;2.90;;;23.70;48.20;;;;;;5195859;28;20048;-54
2021/06/02 16:24:25;;;;;;;4.38;2.55;;;23.70;48.20;;;;;;5199355;28;20524;-55
2021/06/02 16:26:59;;;;;;;5.82;2.40;;;23.70;48.10;;;;;;5202669;28;20629;-56
2021/06/02 16:29:33;;;;;;;;;;;23.70;48.10;;;;;;5194655;28;20051;-55
2021/06/02 16:32:06;;;;;;;;;;;23.60;48.00;;;;;;5200939;28;21311;-56
2021/06/02 16:34:41;;;;;;;4.80;2.58;;;23.60;48.10;;;;;;5203515;28;19938;-58
2021/06/02 16:37:14;;;;;;;3.08;2.45;;;23.60;48.10;;;;;;5200716;28;20037;-54
2021/06/02 16:39:47;;;;;;;;;;;23.60;48.00;;;;;;5190007;28;20527;-54
2021/06/02 16:42:20;;;;;;;3.22;2.45;;;23.50;47.90;;;;;;5202504;27;20659;-54
2021/06/02 16:44:52;;;;;;;3.83;2.45;;;23.60;48.00;;;;;;5213085;27;20043;-56
2021/06/02 16:47:26;;;;;;;5.33;2.70;;;23.60;47.80;;;;;;5229710;28;20128;-59
2021/06/02 16:49:58;;;;;;;7.25;2.60;;;23.70;47.80;;;;;;5211448;28;20056;-54
2021/06/02 16:52:32;;;;;;;5.95;2.70;;;23.70;47.90;;;;;;5222048;27;20044;-55
2021/06/02 16:55:12;;;;;;;10.00;2.83;;;23.70;48.00;;;;;;5203566;27;21694;-56
2021/06/02 16:57:45;;;;;;;6.80;2.38;;;23.70;48.10;;;;;;5223425;27;20715;-58
2021/06/02 17:00:20;;;;;;;8.37;2.80;;;23.70;48.30;;;;;;5230268;27;21314;-55
2021/06/02 17:02:54;;;;;;;7.93;2.80;;;23.70;48.30;;;;;;5218361;27;20302;-58
2021/06/02 17:05:27;;;;;;;5.13;2.53;;;23.80;48.40;;;;;;5211087;27;20044;-57
